createdAt,value
2019-03-18T00:00:01.553Z,1.93
2019-03-18T00:05:01.399Z,1.30
2019-03-18T00:10:01.107Z,1.64
2019-03-18T00:15:02.098Z,1.47
2019-03-18T00:20:01.053Z,1.58
2019-03-18T00:25:03.803Z,1.75
2019-03-18T00:30:01.055Z,1.71
2019-03-18T00:35:01.556Z,1.66
2019-03-18T00:40:01.036Z,1.46
2019-03-18T00:45:13.759Z,0.57
2019-03-18T00:50:01.068Z,1.31
2019-03-18T00:55:01.057Z,0.95
2019-03-18T01:00:01.105Z,0.47
2019-03-18T01:05:01.612Z,0.38
2019-03-18T01:10:01.059Z,0.33
2019-03-18T01:15:01.389Z,1.28
2019-03-18T01:20:01.402Z,1.07
2019-03-18T01:25:01.055Z,0.98
2019-03-18T01:30:01.063Z,1.34
2019-03-18T01:35:01.075Z,1.56
2019-03-18T01:40:01.043Z,1.80
2019-03-18T01:45:01.065Z,2.42
2019-03-18T01:50:01.386Z,1.52
2019-03-18T01:55:01.050Z,1.48
2019-03-18T02:00:01.320Z,1.26
2019-03-18T02:05:01.039Z,0.97
2019-03-18T02:10:01.035Z,1.30
2019-03-18T02:15:01.053Z,0.90
2019-03-18T02:20:01.432Z,1.36
2019-03-18T02:25:01.410Z,0.38
2019-03-18T02:30:01.044Z,0.43
2019-03-18T02:35:01.048Z,0.77
2019-03-18T02:40:01.062Z,0.75
2019-03-18T02:45:01.050Z,0.45
2019-03-18T02:50:01.115Z,0.19
2019-03-18T02:55:01.356Z,0.55
2019-03-18T03:00:01.080Z,0.64
2019-03-18T03:05:01.046Z,2.14
2019-03-18T03:10:01.046Z,2.45
2019-03-18T03:15:01.486Z,3.42
2019-03-18T03:20:01.568Z,3.23
2019-03-18T03:25:01.049Z,2.82
2019-03-18T03:30:01.039Z,2.76
2019-03-18T03:35:01.629Z,3.40
2019-03-18T03:40:01.055Z,2.29
2019-03-18T03:45:01.076Z,1.10
2019-03-18T03:50:01.055Z,1.00
2019-03-18T03:55:01.514Z,0.42
2019-03-18T04:00:01.058Z,0.95
2019-03-18T04:05:01.061Z,1.55
2019-03-18T04:10:01.433Z,0.62
2019-03-18T04:15:01.036Z,0.80
2019-03-18T04:20:01.056Z,0.33
2019-03-18T04:25:01.051Z,0.53
2019-03-18T04:30:01.097Z,0.79
2019-03-18T04:35:01.027Z,1.16
2019-03-18T04:40:01.047Z,1.08
2019-03-18T04:45:01.113Z,0.43
2019-03-18T04:50:01.066Z,2.07
2019-03-18T04:55:01.120Z,1.88
2019-03-18T05:00:01.062Z,2.59
2019-03-18T05:05:01.173Z,1.68
2019-03-18T05:10:01.052Z,1.28
2019-03-18T05:15:01.177Z,1.59
2019-03-18T05:20:01.136Z,1.31
2019-03-18T05:25:01.126Z,1.16
2019-03-18T05:30:01.057Z,1.42
2019-03-18T05:35:01.105Z,1.28
2019-03-18T05:40:08.215Z,1.34
2019-03-18T05:45:01.042Z,0.60
2019-03-18T05:50:01.071Z,0.69
2019-03-18T05:55:01.162Z,0.76
2019-03-18T06:00:01.081Z,0.75
2019-03-18T06:05:01.047Z,0.37
2019-03-18T06:10:01.044Z,0.64
2019-03-18T06:15:01.069Z,0.40
2019-03-18T06:20:01.050Z,0.65
2019-03-18T06:25:01.074Z,0.73
2019-03-18T06:30:01.078Z,0.64
2019-03-18T06:35:01.264Z,1.22
2019-03-18T06:40:01.031Z,0.98
2019-03-18T06:45:01.235Z,1.02
2019-03-18T06:50:01.083Z,1.21
2019-03-18T06:55:02.361Z,1.41
2019-03-18T07:00:02.853Z,1.35
2019-03-18T07:05:01.058Z,1.39
2019-03-18T07:10:01.079Z,2.16
2019-03-18T07:15:01.073Z,0.79
2019-03-18T07:20:01.064Z,1.35
2019-03-18T07:25:05.300Z,0.81
2019-03-18T07:30:01.091Z,0.00
2019-03-18T07:35:01.377Z,0.03
2019-03-18T07:40:01.763Z,0.23
2019-03-18T07:45:01.079Z,0.94
2019-03-18T07:50:01.326Z,0.14
2019-03-18T07:55:01.767Z,0.43
2019-03-18T08:00:01.823Z,0.87
2019-03-18T08:05:01.305Z,0.83
2019-03-18T08:10:01.346Z,1.64
2019-03-18T08:15:01.576Z,0.93
2019-03-18T08:20:03.304Z,1.16
2019-03-18T08:25:01.329Z,1.93
2019-03-18T08:30:01.326Z,1.76
2019-03-18T08:35:01.692Z,0.88
2019-03-18T08:40:01.359Z,0.62
2019-03-18T08:45:01.322Z,0.69
2019-03-18T08:50:01.065Z,2.08
2019-03-18T08:55:01.129Z,1.48
2019-03-18T09:00:01.064Z,1.44
2019-03-18T09:05:01.073Z,0.53
2019-03-18T09:10:01.391Z,0.70
2019-03-18T09:15:01.054Z,0.38
2019-03-18T09:20:01.083Z,0.55
2019-03-18T09:25:01.915Z,0.54
2019-03-18T09:30:01.940Z,0.53
2019-03-18T09:35:01.121Z,0.36
2019-03-18T09:40:03.013Z,0.21
2019-03-18T09:45:01.063Z,1.34
2019-03-18T09:50:01.057Z,0.91
2019-03-18T09:55:01.072Z,1.12
2019-03-18T10:00:01.072Z,0.87
2019-03-18T10:05:01.474Z,0.59
2019-03-18T10:10:01.428Z,0.25
2019-03-18T10:15:01.604Z,0.71
2019-03-18T10:20:03.484Z,0.92
2019-03-18T10:25:04.177Z,1.27
2019-03-18T10:30:01.101Z,0.54
2019-03-18T10:35:01.055Z,0.48
2019-03-18T10:40:01.197Z,1.13
2019-03-18T10:45:01.070Z,1.17
2019-03-18T10:50:01.062Z,1.44
2019-03-18T10:55:01.111Z,1.20
2019-03-18T11:00:01.458Z,1.38
2019-03-18T11:05:01.658Z,1.11
2019-03-18T11:10:01.068Z,1.11
2019-03-18T11:15:01.390Z,1.19
2019-03-18T11:20:01.895Z,2.38
2019-03-18T11:25:01.091Z,2.45
2019-03-18T11:30:03.551Z,1.81
2019-03-18T11:35:01.389Z,2.26
2019-03-18T11:40:01.250Z,1.75
2019-03-18T11:45:01.118Z,2.22
2019-03-18T11:50:11.058Z,1.25
2019-03-18T11:55:01.255Z,1.72
2019-03-18T12:00:01.304Z,2.74
2019-03-18T12:05:01.325Z,2.54
2019-03-18T12:10:01.971Z,1.72
2019-03-18T12:15:01.720Z,1.66
2019-03-18T12:20:01.370Z,1.77
2019-03-18T12:25:01.718Z,2.34
2019-03-18T12:30:01.290Z,2.18
2019-03-18T12:35:01.739Z,2.52
2019-03-18T12:40:01.320Z,2.43
2019-03-18T12:45:01.278Z,2.86
2019-03-18T12:50:01.082Z,3.11
2019-03-18T12:55:01.106Z,2.68
2019-03-18T13:00:01.124Z,2.48
2019-03-18T13:05:01.088Z,2.22
2019-03-18T13:10:01.444Z,2.72
2019-03-18T13:15:01.150Z,2.75
2019-03-18T13:20:01.055Z,1.33
2019-03-18T13:25:01.099Z,1.61
2019-03-18T13:30:01.085Z,2.06
2019-03-18T13:35:01.057Z,1.73
2019-03-18T13:40:01.088Z,2.42
2019-03-18T13:45:01.504Z,2.14
2019-03-18T13:50:01.094Z,3.43
2019-03-18T13:55:01.117Z,1.87
2019-03-18T14:00:01.091Z,2.40
2019-03-18T14:05:01.073Z,3.13
2019-03-18T14:10:01.318Z,2.32
2019-03-18T14:15:01.106Z,2.97
2019-03-18T14:20:01.514Z,3.08
2019-03-18T14:25:01.117Z,2.54
2019-03-18T14:30:01.584Z,2.62
2019-03-18T14:35:01.471Z,2.58
2019-03-18T14:40:01.111Z,2.75
2019-03-18T14:45:01.368Z,2.61
2019-03-18T14:50:01.161Z,2.60
2019-03-18T14:55:01.516Z,2.74
2019-03-18T15:00:01.102Z,2.94
2019-03-18T15:05:01.082Z,2.87
2019-03-18T15:10:01.093Z,3.12
2019-03-18T15:15:01.070Z,2.62
2019-03-18T15:20:01.087Z,2.51
2019-03-18T15:25:01.065Z,2.23
2019-03-18T15:30:01.066Z,2.81
2019-03-18T15:35:01.065Z,1.73
2019-03-18T15:40:01.087Z,2.03
2019-03-18T15:45:03.024Z,1.89
2019-03-18T15:50:01.069Z,2.36
2019-03-18T15:55:01.757Z,1.97
2019-03-18T16:00:01.504Z,2.37
2019-03-18T16:05:01.546Z,1.71
2019-03-18T16:35:01.082Z,0.19
2019-03-18T16:40:01.117Z,0.23
2019-03-18T16:45:01.353Z,0.06
2019-03-18T16:50:01.101Z,0.19
2019-03-18T16:55:01.158Z,0.37
2019-03-18T17:00:01.121Z,0.42
2019-03-18T17:05:01.114Z,0.36
2019-03-18T17:10:01.505Z,0.06
2019-03-18T17:15:01.162Z,0.10
2019-03-18T17:20:01.113Z,0.38
2019-03-18T17:25:01.422Z,0.55
2019-03-18T17:30:01.110Z,0.01
2019-03-18T17:35:01.812Z,0.01
2019-03-18T17:40:01.084Z,0.39
2019-03-18T17:45:01.544Z,0.60
2019-03-18T17:50:01.559Z,0.27
2019-03-18T17:55:01.085Z,0.56
2019-03-18T18:00:01.076Z,0.66
2019-03-18T18:05:03.175Z,0.43
2019-03-18T18:10:01.103Z,0.39
2019-03-18T18:15:01.097Z,0.39
2019-03-18T18:20:01.094Z,0.69
2019-03-18T18:25:01.091Z,0.38
2019-03-18T18:30:01.096Z,0.63
2019-03-18T18:35:01.122Z,0.21
2019-03-18T18:40:01.175Z,0.83
2019-03-18T18:45:01.083Z,0.68
2019-03-18T18:50:01.149Z,0.62
2019-03-18T18:55:01.057Z,0.78
2019-03-18T19:00:06.502Z,0.91
2019-03-18T19:05:01.424Z,0.69
2019-03-18T19:10:01.300Z,0.76
2019-03-18T19:15:01.144Z,0.16
2019-03-18T19:20:01.193Z,0.34
2019-03-18T19:25:01.119Z,0.04
2019-03-18T19:30:01.259Z,0.01
2019-03-18T19:35:01.114Z,0.49
2019-03-18T19:40:01.149Z,0.34
2019-03-18T19:45:01.330Z,0.34
2019-03-18T19:50:01.209Z,0.86
2019-03-18T19:55:01.225Z,0.92
2019-03-18T20:00:01.227Z,0.23
2019-03-18T20:05:01.201Z,0.37
2019-03-18T20:10:01.598Z,0.26
2019-03-18T20:15:01.069Z,0.00
2019-03-18T20:20:01.598Z,0.50
2019-03-18T20:25:01.167Z,0.58
2019-03-18T20:30:04.187Z,0.30
2019-03-18T20:35:01.161Z,0.62
2019-03-18T20:40:01.101Z,0.67
2019-03-18T20:45:01.123Z,0.59
2019-03-18T20:50:01.359Z,0.40
2019-03-18T20:55:01.154Z,0.00
2019-03-18T21:00:01.286Z,0.09
2019-03-18T21:05:01.096Z,0.82
2019-03-18T21:10:01.416Z,0.22
2019-03-18T21:15:01.128Z,0.49
2019-03-18T21:20:01.337Z,0.15
2019-03-18T21:25:01.105Z,0.38
2019-03-18T21:30:01.260Z,0.67
2019-03-18T21:35:01.567Z,0.42
2019-03-18T21:40:01.289Z,0.30
2019-03-18T21:45:01.450Z,0.64
2019-03-18T21:50:01.129Z,0.05
2019-03-18T21:55:01.564Z,0.06
2019-03-18T22:00:01.123Z,0.38
2019-03-18T22:05:01.150Z,0.22
2019-03-18T22:10:01.400Z,0.17
2019-03-18T22:15:01.142Z,0.15
2019-03-18T22:20:01.155Z,0.35
2019-03-18T22:25:01.277Z,0.08
2019-03-18T22:30:01.343Z,0.30
2019-03-18T22:35:01.081Z,0.56
2019-03-18T22:40:01.174Z,0.53
2019-03-18T22:45:01.105Z,0.00
2019-03-18T22:50:01.128Z,0.12
2019-03-18T22:55:01.114Z,0.37
2019-03-18T23:00:01.388Z,0.24
2019-03-18T23:05:01.065Z,0.00
2019-03-18T23:10:01.367Z,0.00
2019-03-18T23:15:01.052Z,0.00
2019-03-18T23:20:01.448Z,0.00
2019-03-18T23:25:07.105Z,0.00
2019-03-18T23:30:01.089Z,0.01
2019-03-18T23:35:01.101Z,0.00
2019-03-18T23:40:01.096Z,0.00
2019-03-18T23:45:01.098Z,0.00
2019-03-18T23:50:01.076Z,0.09
2019-03-18T23:55:01.397Z,0.22
